Time;durP1;ratioP1;P1;durP2;ratioP2;P2;SDS_P1;SDS_P2;PMS_P1;PMS_P2;Temp;Humidity;BMP_temperature;BMP_pressure;BME280_temperature;BME280_humidity;BME280_pressure;Samples;Min_cycle;Max_cycle;Signal;HPM_P1;HPM_P2
2022/12/18 00:00:44;;;;;;;28.80;19.75;;;4.10;92.80;;;;;;5124082;28;20024;-58
2022/12/18 00:03:09;;;;;;;30.23;19.65;;;4.10;92.80;;;;;;5125503;28;20061;-58
2022/12/18 00:05:35;;;;;;;26.98;19.60;;;4.10;92.80;;;;;;5123895;28;20028;-58
2022/12/18 00:08:01;;;;;;;25.38;17.88;;;4.00;92.80;;;;;;5123896;28;20119;-58
2022/12/18 00:10:27;;;;;;;28.98;19.15;;;4.10;92.80;;;;;;5125201;28;20052;-58
2022/12/18 00:12:53;;;;;;;25.38;17.75;;;4.10;92.80;;;;;;5123771;28;20036;-58
2022/12/18 00:15:19;;;;;;;27.15;19.65;;;4.10;92.80;;;;;;5123957;28;20042;-58
2022/12/18 00:17:44;;;;;;;24.60;18.50;;;4.10;92.80;;;;;;5123958;28;20027;-58
2022/12/18 00:20:10;;;;;;;27.10;19.25;;;4.10;92.80;;;;;;5125085;28;20097;-59
2022/12/18 00:22:35;;;;;;;27.67;19.08;;;4.10;92.80;;;;;;5125147;28;20053;-58
2022/12/18 00:25:01;;;;;;;25.55;19.40;;;4.10;92.80;;;;;;5125454;28;20040;-58
2022/12/18 00:27:26;;;;;;;26.20;19.05;;;4.10;92.80;;;;;;5123867;28;20039;-58
2022/12/18 00:29:52;;;;;;;27.67;18.67;;;4.10;92.80;;;;;;5124025;28;20121;-58
2022/12/18 00:32:18;;;;;;;27.70;18.20;;;4.00;92.80;;;;;;5124905;28;20042;-58
2022/12/18 00:34:43;;;;;;;28.10;19.27;;;4.00;92.80;;;;;;5124993;28;20083;-58
2022/12/18 00:37:09;;;;;;;27.00;19.65;;;4.00;92.80;;;;;;5123704;28;20046;-58
2022/12/18 00:39:34;;;;;;;29.48;20.65;;;4.00;92.90;;;;;;5123408;28;20024;-58
2022/12/18 00:44:44;;;;;;;28.33;19.27;;;4.00;92.80;;;;;;5125801;28;20122;-58
2022/12/18 00:47:09;;;;;;;27.35;18.90;;;4.00;92.80;;;;;;5129108;28;20100;-58
2022/12/18 00:49:35;;;;;;;25.98;18.60;;;4.00;93.10;;;;;;5128989;28;20036;-58
2022/12/18 00:52:00;;;;;;;27.15;18.98;;;4.00;92.80;;;;;;5128612;28;20035;-58
2022/12/18 00:54:26;;;;;;;25.50;19.77;;;4.00;92.80;;;;;;5128861;28;20069;-58
2022/12/18 00:56:52;;;;;;;27.55;19.80;;;4.10;92.80;;;;;;5127697;28;20035;-58
2022/12/18 00:59:18;;;;;;;28.25;20.55;;;4.00;92.70;;;;;;5128585;28;20038;-58
2022/12/18 01:01:43;;;;;;;25.02;19.23;;;4.00;92.70;;;;;;5110355;28;20445;-58
2022/12/18 01:04:09;;;;;;;26.40;20.05;;;4.00;92.80;;;;;;5127158;28;20047;-58
2022/12/18 01:06:34;;;;;;;24.80;19.77;;;4.00;92.80;;;;;;5128711;28;20031;-58
2022/12/18 01:09:00;;;;;;;27.05;19.38;;;4.00;92.80;;;;;;5127327;28;20024;-58
2022/12/18 01:11:25;;;;;;;23.63;19.40;;;4.00;92.80;;;;;;5127134;28;20122;-58
2022/12/18 01:13:52;;;;;;;28.73;19.45;;;4.00;92.80;;;;;;5127116;28;20028;-58
2022/12/18 01:16:18;;;;;;;28.33;20.58;;;4.00;92.80;;;;;;5127102;28;20036;-58
2022/12/18 01:18:44;;;;;;;25.35;18.83;;;4.00;92.70;;;;;;5128274;28;20032;-59
2022/12/18 01:21:11;;;;;;;25.15;19.30;;;4.00;92.70;;;;;;5126899;28;20508;-58
2022/12/18 01:23:37;;;;;;;25.42;19.75;;;4.00;92.70;;;;;;5126797;28;20035;-58
2022/12/18 01:26:11;;;;;;;27.88;19.67;;;4.00;92.70;;;;;;5126989;28;20105;-58
2022/12/18 01:28:37;;;;;;;27.02;20.70;;;4.00;92.80;;;;;;5126573;28;20032;-58
2022/12/18 01:31:15;;;;;;;27.67;20.13;;;4.00;92.80;;;;;;5126711;28;20413;-58
2022/12/18 01:33:41;;;;;;;24.48;19.38;;;4.00;92.80;;;;;;5128032;28;20036;-58
2022/12/18 01:36:07;;;;;;;24.42;18.92;;;4.00;92.80;;;;;;5143605;27;20073;-58
2022/12/18 01:38:33;;;;;;;26.30;19.10;;;4.00;92.80;;;;;;5126617;28;20030;-58
2022/12/18 01:40:59;;;;;;;25.95;20.05;;;4.00;92.80;;;;;;5127923;28;20042;-58
2022/12/18 01:43:53;;;;;;;27.95;19.50;;;4.00;92.80;;;;;;5126669;28;20031;-58
2022/12/18 01:46:19;;;;;;;27.92;19.73;;;4.00;92.80;;;;;;5126383;28;20020;-58
2022/12/18 01:48:47;;;;;;;24.98;19.00;;;4.00;92.80;;;;;;5126364;28;20039;-58
2022/12/18 01:51:12;;;;;;;27.45;19.55;;;4.00;92.80;;;;;;5126274;28;20104;-58
2022/12/18 01:53:39;;;;;;;27.25;19.75;;;4.00;92.80;;;;;;5126186;28;20043;-58
2022/12/18 01:56:04;;;;;;;30.48;21.58;;;4.00;92.80;;;;;;5108200;28;20087;-57
2022/12/18 01:58:41;;;;;;;25.67;19.98;;;4.00;92.80;;;;;;5126180;28;20020;-59
2022/12/18 02:01:07;;;;;;;26.90;18.75;;;4.00;92.80;;;;;;5126177;28;20119;-58
2022/12/18 02:03:32;;;;;;;24.83;20.17;;;4.00;92.80;;;;;;5126007;28;20112;-58
2022/12/18 02:06:04;;;;;;;25.80;20.13;;;4.00;92.80;;;;;;5127330;28;20039;-58
2022/12/18 02:08:37;;;;;;;25.17;20.30;;;4.00;92.80;;;;;;5126069;28;20042;-58
2022/12/18 02:11:38;;;;;;;25.63;19.58;;;4.00;92.70;;;;;;5126088;28;20054;-58
2022/12/18 02:14:17;;;;;;;26.65;21.17;;;4.00;92.70;;;;;;5090943;28;20063;-58
2022/12/18 02:16:49;;;;;;;26.25;19.95;;;4.00;92.70;;;;;;5126044;28;20031;-58
2022/12/18 02:19:35;;;;;;;25.92;20.98;;;4.00;92.70;;;;;;5125889;28;20118;-58
2022/12/18 02:22:10;;;;;;;25.58;20.35;;;4.00;92.70;;;;;;5125897;28;20039;-58
2022/12/18 02:24:40;;;;;;;29.52;22.05;;;4.00;92.80;;;;;;5127068;28;20042;-59
2022/12/18 02:27:06;;;;;;;27.20;21.05;;;4.00;92.70;;;;;;5125575;28;20080;-58
2022/12/18 02:29:36;;;;;;;25.50;19.27;;;3.90;92.70;;;;;;5125590;28;20039;-58
2022/12/18 02:32:02;;;;;;;25.17;20.67;;;3.90;92.70;;;;;;5125600;28;20031;-58
2022/12/18 02:34:30;;;;;;;28.35;21.65;;;3.90;92.70;;;;;;5125519;28;20032;-58
2022/12/18 02:36:56;;;;;;;27.52;20.13;;;3.90;92.80;;;;;;5125410;28;20028;-58
2022/12/18 02:39:21;;;;;;;25.80;19.63;;;4.00;92.80;;;;;;5125553;28;20091;-58
2022/12/18 02:41:48;;;;;;;24.30;19.77;;;3.90;92.70;;;;;;5125355;28;20147;-58
2022/12/18 02:44:13;;;;;;;29.98;21.73;;;3.90;92.70;;;;;;5125350;28;20123;-58
2022/12/18 02:46:57;;;;;;;24.98;19.52;;;3.90;92.70;;;;;;5125280;28;20024;-58
2022/12/18 02:49:36;;;;;;;26.70;21.15;;;3.90;92.70;;;;;;5126653;28;20038;-58
2022/12/18 02:52:07;;;;;;;27.30;21.00;;;3.90;92.70;;;;;;5126328;28;20031;-58
2022/12/18 02:54:43;;;;;;;25.33;19.65;;;4.00;92.80;;;;;;5125210;28;20024;-58
2022/12/18 02:57:18;;;;;;;26.85;20.20;;;4.00;92.80;;;;;;5125026;28;20047;-59
2022/12/18 03:00:00;;;;;;;25.98;21.15;;;3.90;92.70;;;;;;5125130;28;20023;-58
2022/12/18 03:02:50;;;;;;;24.88;19.60;;;3.90;92.70;;;;;;5125115;28;20119;-58
2022/12/18 03:05:33;;;;;;;28.35;20.55;;;3.90;92.70;;;;;;5126119;28;20032;-58
2022/12/18 03:08:05;;;;;;;27.25;21.02;;;4.00;92.70;;;;;;5124604;28;20115;-58
2022/12/18 03:10:33;;;;;;;28.70;21.73;;;4.00;92.70;;;;;;5124715;28;20032;-58
2022/12/18 03:13:11;;;;;;;26.17;21.42;;;3.90;92.70;;;;;;5124655;28;20122;-59
2022/12/18 03:15:43;;;;;;;26.45;21.25;;;3.90;92.80;;;;;;5124658;28;20046;-58
2022/12/18 03:18:21;;;;;;;27.70;21.25;;;3.90;92.70;;;;;;5124718;28;20027;-58
2022/12/18 03:20:47;;;;;;;26.70;20.17;;;3.90;92.70;;;;;;5124646;28;20088;-59
2022/12/18 03:23:15;;;;;;;27.02;21.10;;;4.00;92.70;;;;;;5124596;28;20047;-58
2022/12/18 03:25:41;;;;;;;28.35;20.83;;;3.90;92.70;;;;;;5124623;28;20464;-58
2022/12/18 03:28:08;;;;;;;27.73;21.52;;;4.00;92.70;;;;;;5107376;28;20373;-58
2022/12/18 03:30:34;;;;;;;30.55;22.13;;;4.00;92.70;;;;;;5107596;28;20023;-58
2022/12/18 03:33:05;;;;;;;27.25;21.83;;;4.00;92.70;;;;;;5124361;28;20077;-58
2022/12/18 03:35:33;;;;;;;28.38;22.23;;;4.00;92.70;;;;;;5124375;28;20363;-59
2022/12/18 03:37:58;;;;;;;27.52;21.23;;;4.00;92.70;;;;;;5124295;28;20453;-58
2022/12/18 03:40:29;;;;;;;26.23;21.33;;;3.90;92.70;;;;;;5124375;28;20023;-58
2022/12/18 03:43:13;;;;;;;27.65;21.40;;;3.90;92.70;;;;;;5124657;28;20031;-59
2022/12/18 03:45:42;;;;;;;27.58;22.05;;;3.90;92.70;;;;;;5124227;28;20155;-58
2022/12/18 03:48:17;;;;;;;30.10;22.73;;;4.00;92.70;;;;;;5124510;28;20053;-59
2022/12/18 03:50:56;;;;;;;26.17;21.08;;;3.90;92.70;;;;;;5124005;28;20398;-59
2022/12/18 03:53:40;;;;;;;28.30;21.58;;;3.90;92.70;;;;;;5124123;28;20508;-58
2022/12/18 03:56:05;;;;;;;29.38;21.58;;;4.00;92.80;;;;;;5124066;28;20035;-58
2022/12/18 03:58:31;;;;;;;28.35;21.85;;;3.90;92.70;;;;;;5123968;28;20035;-58
2022/12/18 04:00:59;;;;;;;26.80;21.50;;;3.90;92.70;;;;;;5123959;28;20019;-59
2022/12/18 04:03:25;;;;;;;25.55;20.85;;;3.90;92.70;;;;;;5123954;28;20051;-58
2022/12/18 04:05:51;;;;;;;30.65;21.45;;;3.90;92.80;;;;;;5123907;28;20015;-58
2022/12/18 04:08:16;;;;;;;29.42;23.48;;;3.90;92.80;;;;;;5123837;28;20120;-58
2022/12/18 04:10:42;;;;;;;30.40;22.27;;;3.90;92.70;;;;;;5123675;28;20081;-58
2022/12/18 04:13:08;;;;;;;28.50;21.85;;;3.90;92.70;;;;;;5106600;28;20032;-58
2022/12/18 04:15:34;;;;;;;26.77;20.52;;;3.90;92.70;;;;;;5123761;28;20027;-58
2022/12/18 04:18:00;;;;;;;27.58;22.42;;;3.90;92.80;;;;;;5106668;28;20464;-58
2022/12/18 04:20:25;;;;;;;25.90;21.45;;;3.90;92.70;;;;;;5126033;28;20024;-58
2022/12/18 04:22:51;;;;;;;25.25;21.15;;;3.90;92.70;;;;;;5128079;28;20043;-59
2022/12/18 04:25:16;;;;;;;27.90;22.77;;;3.90;92.70;;;;;;5127817;28;20511;-58
2022/12/18 04:27:42;;;;;;;28.98;22.63;;;3.90;92.70;;;;;;5128203;28;20031;-58
2022/12/18 04:30:08;;;;;;;27.13;21.63;;;3.90;92.70;;;;;;5129311;28;20023;-58
2022/12/18 04:32:34;;;;;;;29.63;23.33;;;3.90;92.70;;;;;;5128063;28;20049;-58
2022/12/18 04:34:59;;;;;;;28.80;23.02;;;3.90;92.70;;;;;;5129308;28;20150;-58
2022/12/18 04:37:25;;;;;;;28.98;22.60;;;3.90;92.70;;;;;;5129335;28;20539;-58
2022/12/18 04:39:50;;;;;;;34.03;22.80;;;3.90;92.70;;;;;;5127746;28;20028;-58
2022/12/18 04:42:16;;;;;;;31.30;22.38;;;4.00;92.70;;;;;;5129288;28;20016;-59
2022/12/18 04:44:41;;;;;;;27.55;22.70;;;3.90;92.70;;;;;;5129143;28;20085;-58
2022/12/18 04:47:07;;;;;;;26.20;22.05;;;3.90;92.70;;;;;;5127741;28;20357;-59
2022/12/18 04:49:33;;;;;;;28.58;22.17;;;3.90;92.70;;;;;;5128926;28;20050;-59
2022/12/18 04:51:58;;;;;;;27.98;23.27;;;3.90;92.70;;;;;;5127348;28;20027;-58
2022/12/18 04:54:24;;;;;;;26.83;22.17;;;3.90;92.70;;;;;;5127320;28;20027;-58
2022/12/18 04:56:49;;;;;;;25.58;20.88;;;3.90;92.70;;;;;;5127358;28;20026;-58
2022/12/18 04:59:15;;;;;;;26.05;22.08;;;3.90;92.70;;;;;;5127357;28;20030;-59
2022/12/18 05:01:40;;;;;;;25.17;21.73;;;4.00;92.70;;;;;;5127183;28;20032;-59
2022/12/18 05:04:06;;;;;;;28.55;22.67;;;3.90;92.60;;;;;;5127233;28;20031;-58
2022/12/18 05:06:31;;;;;;;27.92;22.55;;;3.90;92.60;;;;;;5127209;28;20028;-59
2022/12/18 05:08:57;;;;;;;27.92;22.15;;;4.00;92.60;;;;;;5127294;28;20139;-58
2022/12/18 05:11:22;;;;;;;30.15;22.60;;;3.90;92.60;;;;;;5127203;28;20072;-59
2022/12/18 05:13:48;;;;;;;28.25;20.90;;;3.90;92.60;;;;;;5127308;28;20028;-58
2022/12/18 05:16:14;;;;;;;28.83;21.67;;;3.90;92.60;;;;;;5128418;28;20020;-58
2022/12/18 05:18:39;;;;;;;28.95;21.67;;;3.90;92.60;;;;;;5127330;28;20092;-59
2022/12/18 05:21:05;;;;;;;26.73;21.98;;;3.90;92.60;;;;;;5126956;28;20422;-58
2022/12/18 05:23:31;;;;;;;26.90;21.67;;;3.90;92.70;;;;;;5128210;28;20035;-59
2022/12/18 05:25:58;;;;;;;27.00;21.58;;;3.90;92.60;;;;;;5128220;28;20036;-59
2022/12/18 05:28:24;;;;;;;28.63;22.20;;;3.90;92.60;;;;;;5126698;28;20083;-58
2022/12/18 05:30:51;;;;;;;26.58;21.25;;;3.90;92.60;;;;;;5126739;28;20043;-59
2022/12/18 05:33:17;;;;;;;27.30;21.00;;;3.90;92.60;;;;;;5126956;28;20102;-59
2022/12/18 05:35:43;;;;;;;26.70;22.20;;;3.90;92.60;;;;;;5126946;28;20031;-58
2022/12/18 05:38:08;;;;;;;27.45;22.05;;;3.90;92.60;;;;;;5126840;28;20024;-58
2022/12/18 05:40:34;;;;;;;27.42;21.05;;;3.90;92.60;;;;;;5126662;28;20047;-59
2022/12/18 05:43:00;;;;;;;26.45;21.40;;;3.90;92.60;;;;;;5126464;28;20043;-59
2022/12/18 05:45:25;;;;;;;27.15;21.85;;;3.90;92.60;;;;;;5126395;28;20028;-59
2022/12/18 05:47:51;;;;;;;28.80;22.35;;;3.90;92.60;;;;;;5127792;28;20023;-58
2022/12/18 05:50:16;;;;;;;27.67;21.60;;;3.90;92.60;;;;;;5126355;28;20031;-59
2022/12/18 05:52:42;;;;;;;27.60;21.67;;;3.90;92.60;;;;;;5126086;28;20031;-59
2022/12/18 05:55:07;;;;;;;28.90;22.40;;;3.90;92.60;;;;;;5126546;28;20030;-58
2022/12/18 05:57:33;;;;;;;27.50;21.85;;;3.90;92.60;;;;;;5127372;28;20027;-58
2022/12/18 05:59:58;;;;;;;28.90;22.13;;;3.90;92.60;;;;;;5126230;28;20074;-59
2022/12/18 06:02:24;;;;;;;26.98;21.73;;;3.90;92.50;;;;;;5126233;28;20027;-59
2022/12/18 06:04:49;;;;;;;26.77;21.05;;;3.90;92.50;;;;;;5127429;28;20035;-58
2022/12/18 06:07:15;;;;;;;26.48;21.83;;;3.90;92.60;;;;;;5126021;28;20028;-58
2022/12/18 06:09:40;;;;;;;26.15;21.23;;;3.90;92.60;;;;;;5127293;28;20040;-58
2022/12/18 06:12:06;;;;;;;28.08;20.77;;;3.90;92.60;;;;;;5125717;28;20088;-59
2022/12/18 06:14:32;;;;;;;28.23;21.50;;;3.90;92.60;;;;;;5125864;28;20047;-58
2022/12/18 06:16:57;;;;;;;26.65;20.98;;;3.90;92.60;;;;;;5108904;28;20031;-58
2022/12/18 06:19:23;;;;;;;26.60;21.05;;;3.90;92.70;;;;;;5126389;28;20038;-58
2022/12/18 06:21:50;;;;;;;26.60;21.55;;;3.90;92.80;;;;;;5125990;28;20019;-58
2022/12/18 06:24:15;;;;;;;26.42;21.35;;;3.90;92.90;;;;;;5126109;28;20036;-58
2022/12/18 06:26:41;;;;;;;26.83;21.75;;;4.00;93.00;;;;;;5125793;28;20038;-58
2022/12/18 06:29:06;;;;;;;27.92;21.20;;;3.90;93.00;;;;;;5125645;28;20510;-58
2022/12/18 06:31:32;;;;;;;27.85;21.58;;;4.00;93.10;;;;;;5124939;28;20058;-58
2022/12/18 06:33:58;;;;;;;28.20;21.60;;;4.00;93.10;;;;;;5125181;28;20079;-58
2022/12/18 06:36:23;;;;;;;27.58;22.00;;;4.00;93.10;;;;;;5125213;28;20031;-58
2022/12/18 06:38:49;;;;;;;26.48;21.63;;;4.00;93.10;;;;;;5125386;28;20028;-58
2022/12/18 06:41:19;;;;;;;34.47;20.92;;;4.00;93.10;;;;;;5125074;28;20073;-58
2022/12/18 06:43:45;;;;;;;36.28;22.67;;;4.00;93.10;;;;;;5124659;28;20055;-57
2022/12/18 06:46:10;;;;;;;33.92;21.70;;;4.00;93.00;;;;;;5126464;28;20024;-58
2022/12/18 06:48:36;;;;;;;28.27;21.90;;;4.00;93.00;;;;;;5125165;28;20035;-58
2022/12/18 06:51:01;;;;;;;28.35;20.90;;;4.00;93.00;;;;;;5125027;28;20067;-58
2022/12/18 06:53:27;;;;;;;34.40;21.30;;;4.00;93.00;;;;;;5126441;28;20035;-58
2022/12/18 06:55:59;;;;;;;34.88;21.35;;;4.10;93.00;;;;;;5126293;28;20025;-58
2022/12/18 06:58:24;;;;;;;31.90;20.85;;;4.10;92.90;;;;;;5125079;28;20027;-58
2022/12/18 07:00:50;;;;;;;32.78;21.48;;;4.10;92.90;;;;;;5126127;28;20441;-58
2022/12/18 07:03:15;;;;;;;30.48;21.90;;;4.10;92.90;;;;;;5125083;28;20449;-58
2022/12/18 07:05:41;;;;;;;32.75;21.98;;;4.10;92.90;;;;;;5124841;28;20103;-58
2022/12/18 07:08:07;;;;;;;40.65;21.42;;;4.10;92.90;;;;;;5126162;28;20050;-58
2022/12/18 07:10:32;;;;;;;29.83;21.25;;;4.10;92.90;;;;;;5124789;28;20023;-58
2022/12/18 07:12:58;;;;;;;52.47;22.08;;;4.10;93.00;;;;;;5124454;28;20546;-58
2022/12/18 07:15:23;;;;;;;35.28;21.80;;;4.10;92.90;;;;;;5124677;28;20015;-58
2022/12/18 07:17:49;;;;;;;39.72;22.45;;;4.10;93.00;;;;;;5125867;28;20036;-58
2022/12/18 07:20:14;;;;;;;35.67;22.92;;;4.10;93.00;;;;;;5126035;28;20416;-58
2022/12/18 07:22:40;;;;;;;32.65;21.30;;;4.10;93.00;;;;;;5126107;28;20043;-58
2022/12/18 07:25:06;;;;;;;34.40;21.33;;;4.10;93.00;;;;;;5126078;28;20112;-58
2022/12/18 07:27:32;;;;;;;31.90;21.50;;;4.10;93.00;;;;;;5125902;28;20054;-58
2022/12/18 07:29:57;;;;;;;37.47;20.85;;;4.10;93.10;;;;;;5125928;28;20032;-58
2022/12/18 07:32:23;;;;;;;28.50;20.85;;;4.10;93.00;;;;;;5124796;28;20024;-57
2022/12/18 07:34:48;;;;;;;38.50;21.73;;;4.10;93.00;;;;;;5125506;28;20080;-58
2022/12/18 07:37:14;;;;;;;32.08;21.35;;;4.10;93.00;;;;;;5125989;28;20020;-58
2022/12/18 07:39:39;;;;;;;34.67;20.58;;;4.10;93.00;;;;;;5124360;28;20024;-58
2022/12/18 07:44:52;;;;;;;39.03;22.08;;;4.10;93.00;;;;;;5125464;28;20484;-58
2022/12/18 07:47:18;;;;;;;40.88;21.80;;;4.10;92.90;;;;;;5124152;28;20059;-58
2022/12/18 07:49:43;;;;;;;38.58;21.92;;;4.10;92.90;;;;;;5125480;28;20038;-58
2022/12/18 07:52:09;;;;;;;38.60;22.05;;;4.10;92.90;;;;;;5106845;28;20028;-58
2022/12/18 07:54:35;;;;;;;37.28;21.55;;;4.10;92.90;;;;;;5123138;28;20026;-58
2022/12/18 07:57:00;;;;;;;35.17;21.77;;;4.10;92.90;;;;;;5124209;28;20104;-58
2022/12/18 07:59:26;;;;;;;38.50;23.48;;;4.10;92.90;;;;;;5123832;28;20023;-58
2022/12/18 08:01:51;;;;;;;44.42;22.20;;;4.10;92.90;;;;;;5125388;28;20039;-58
2022/12/18 08:04:17;;;;;;;42.78;22.95;;;4.10;92.90;;;;;;5123878;28;20042;-58
2022/12/18 08:06:42;;;;;;;38.90;22.65;;;4.10;92.90;;;;;;5123932;28;20545;-58
2022/12/18 08:09:09;;;;;;;37.42;22.45;;;4.20;92.90;;;;;;5123940;28;20051;-58
2022/12/18 08:11:35;;;;;;;34.83;21.92;;;4.10;92.80;;;;;;5123567;28;20038;-58
2022/12/18 08:14:00;;;;;;;34.08;22.70;;;4.10;92.80;;;;;;5123862;28;20032;-58
2022/12/18 08:16:26;;;;;;;33.42;21.92;;;4.20;92.90;;;;;;5125327;28;20054;-58
2022/12/18 08:18:52;;;;;;;37.80;22.15;;;4.10;92.80;;;;;;5123633;28;20155;-58
2022/12/18 08:21:23;;;;;;;42.70;23.88;;;4.10;92.80;;;;;;5123775;28;20028;-58
2022/12/18 08:23:49;;;;;;;39.50;22.63;;;4.10;92.80;;;;;;5123773;28;20035;-58
2022/12/18 08:26:15;;;;;;;34.38;21.85;;;4.10;92.80;;;;;;5123769;28;20055;-58
2022/12/18 08:28:41;;;;;;;34.47;21.92;;;4.10;93.10;;;;;;5123848;28;20027;-59
2022/12/18 08:31:07;;;;;;;33.78;21.30;;;4.10;92.80;;;;;;5123516;28;20027;-58
2022/12/18 08:33:33;;;;;;;37.63;22.08;;;4.10;92.80;;;;;;5123410;28;20165;-58
2022/12/18 08:35:59;;;;;;;38.05;22.08;;;4.10;92.80;;;;;;5124997;28;20035;-57
2022/12/18 08:38:24;;;;;;;38.22;22.52;;;4.10;92.80;;;;;;5123635;28;20023;-58
2022/12/18 08:41:00;;;;;;;32.35;22.40;;;4.10;92.80;;;;;;5106542;28;20114;-58
2022/12/18 08:46:10;;;;;;;36.00;23.02;;;4.10;92.80;;;;;;5123677;28;20156;-59
2022/12/18 08:48:35;;;;;;;31.42;23.33;;;4.10;92.80;;;;;;5123521;28;20036;-58
2022/12/18 08:51:01;;;;;;;29.65;22.75;;;4.10;92.80;;;;;;5123217;28;20036;-58
2022/12/18 08:53:27;;;;;;;32.40;22.13;;;4.10;92.80;;;;;;5124948;28;20084;-58
2022/12/18 08:55:53;;;;;;;35.25;21.85;;;4.10;92.70;;;;;;5123473;28;20020;-58
2022/12/18 08:58:18;;;;;;;37.75;23.63;;;4.10;92.70;;;;;;5123298;28;20036;-58
2022/12/18 09:00:44;;;;;;;32.97;22.27;;;4.10;92.70;;;;;;5123361;28;20016;-57
2022/12/18 09:03:16;;;;;;;42.55;22.10;;;4.10;92.70;;;;;;5123575;28;20043;-58
2022/12/18 09:05:42;;;;;;;37.38;21.55;;;4.20;92.70;;;;;;5123926;28;20032;-58
2022/12/18 09:08:08;;;;;;;35.70;22.30;;;4.10;92.70;;;;;;5126932;28;20050;-58
2022/12/18 09:10:33;;;;;;;35.88;21.52;;;4.10;92.60;;;;;;5126888;28;20157;-58
2022/12/18 09:12:59;;;;;;;32.85;23.80;;;4.10;92.60;;;;;;5127091;28;20142;-58
2022/12/18 09:15:24;;;;;;;28.58;22.38;;;4.10;92.60;;;;;;5128417;28;20020;-58
2022/12/18 09:17:50;;;;;;;35.97;21.85;;;4.10;92.70;;;;;;5126902;28;20027;-58
2022/12/18 09:20:16;;;;;;;31.90;23.10;;;4.10;92.70;;;;;;5126772;28;20020;-58
2022/12/18 09:22:42;;;;;;;29.48;21.58;;;4.10;92.70;;;;;;5128258;28;20039;-58
2022/12/18 09:25:07;;;;;;;33.65;22.50;;;4.10;92.60;;;;;;5126986;28;20111;-58
2022/12/18 09:27:34;;;;;;;35.58;23.25;;;4.10;92.60;;;;;;5126484;28;20020;-58
2022/12/18 09:29:59;;;;;;;31.88;22.83;;;4.10;92.60;;;;;;5127150;28;20035;-58
2022/12/18 09:32:25;;;;;;;36.28;22.55;;;4.20;92.70;;;;;;5126616;28;20054;-58
2022/12/18 09:34:50;;;;;;;43.25;23.90;;;4.20;92.70;;;;;;5126541;28;20366;-58
2022/12/18 09:37:16;;;;;;;35.15;23.50;;;4.20;92.70;;;;;;5127913;28;20020;-58
2022/12/18 09:39:41;;;;;;;31.08;23.83;;;4.20;92.70;;;;;;5126419;28;20091;-58
2022/12/18 09:42:13;;;;;;;35.63;22.50;;;4.20;93.00;;;;;;5127502;28;20505;-58
2022/12/18 09:44:41;;;;;;;32.78;23.08;;;4.20;92.60;;;;;;5126392;28;20088;-58
2022/12/18 09:47:13;;;;;;;50.03;24.02;;;4.20;92.70;;;;;;5126275;28;20019;-58
2022/12/18 09:49:46;;;;;;;43.63;23.48;;;4.20;92.70;;;;;;5126038;28;20032;-58
2022/12/18 09:52:21;;;;;;;49.97;24.10;;;4.20;92.70;;;;;;5125874;28;20039;-58
2022/12/18 09:54:53;;;;;;;47.53;24.33;;;4.30;92.80;;;;;;5127441;28;20027;-58
2022/12/18 09:57:21;;;;;;;44.15;25.13;;;4.30;92.90;;;;;;5126079;28;20045;-58
2022/12/18 09:59:56;;;;;;;60.40;26.85;;;4.30;92.90;;;;;;5126130;28;20319;-58
2022/12/18 10:02:26;;;;;;;49.17;25.13;;;4.30;92.90;;;;;;5125637;28;20142;-58
2022/12/18 10:05:05;;;;;;;52.47;26.20;;;4.40;92.90;;;;;;5108620;28;20035;-58
2022/12/18 10:08:01;;;;;;;62.60;26.20;;;4.30;92.90;;;;;;5127070;28;20439;-58
2022/12/18 10:10:54;;;;;;;59.10;25.85;;;4.40;93.00;;;;;;5125898;28;20026;-58
2022/12/18 10:13:34;;;;;;;80.65;26.00;;;4.40;93.00;;;;;;5125790;28;20096;-58
2022/12/18 10:16:02;;;;;;;71.57;25.45;;;4.40;93.10;;;;;;5125253;28;20027;-58
2022/12/18 10:18:37;;;;;;;81.00;26.58;;;4.40;93.10;;;;;;5124483;28;20023;-58
2022/12/18 10:21:23;;;;;;;63.27;29.00;;;4.40;93.30;;;;;;5126595;28;20020;-58
2022/12/18 10:24:12;;;;;;;60.78;26.15;;;4.50;93.40;;;;;;5125262;28;20277;-58
2022/12/18 10:26:37;;;;;;;75.50;27.15;;;4.50;93.40;;;;;;5105475;28;20146;-57
2022/12/18 10:29:10;;;;;;;68.57;26.80;;;4.50;93.30;;;;;;5125237;28;20027;-58
2022/12/18 10:31:36;;;;;;;57.17;27.17;;;4.50;93.30;;;;;;5107571;28;20153;-58
2022/12/18 10:34:01;;;;;;;74.70;26.38;;;4.50;93.50;;;;;;5124844;28;20039;-58
2022/12/18 10:36:27;;;;;;;93.40;27.75;;;4.50;93.20;;;;;;5125231;28;20091;-58
2022/12/18 10:38:52;;;;;;;78.53;29.13;;;4.60;93.20;;;;;;5125461;28;20036;-58
2022/12/18 10:41:18;;;;;;;78.00;28.77;;;4.60;93.60;;;;;;5107771;28;20074;-58
2022/12/18 10:43:44;;;;;;;95.70;29.27;;;4.60;93.40;;;;;;5124930;28;20099;-58
2022/12/18 10:46:10;;;;;;;91.65;29.42;;;4.60;93.50;;;;;;5124715;28;20399;-58
2022/12/18 10:48:48;;;;;;;82.07;29.67;;;4.60;93.40;;;;;;5126141;28;20027;-58
2022/12/18 10:51:26;;;;;;;99.32;29.77;;;4.60;93.40;;;;;;5126054;28;20134;-57
2022/12/18 10:54:03;;;;;;;125.40;30.70;;;4.60;93.40;;;;;;5124567;28;20058;-58
2022/12/18 10:56:29;;;;;;;359.95;51.70;;;4.60;93.30;;;;;;5126810;28;20050;-58
2022/12/18 10:59:08;;;;;;;163.13;34.88;;;4.70;93.40;;;;;;5124566;28;20092;-58
2022/12/18 11:01:49;;;;;;;153.95;34.85;;;4.70;93.50;;;;;;5124575;28;20028;-58
2022/12/18 11:04:25;;;;;;;155.25;35.20;;;4.80;93.40;;;;;;5125931;28;20038;-58
2022/12/18 11:07:05;;;;;;;125.10;31.40;;;4.80;93.40;;;;;;5124544;28;20015;-58
2022/12/18 11:09:34;;;;;;;162.07;35.78;;;4.80;93.40;;;;;;5124896;28;20031;-58
2022/12/18 11:12:05;;;;;;;150.43;32.72;;;4.80;93.30;;;;;;5126177;28;20027;-58
2022/12/18 11:14:33;;;;;;;137.35;34.00;;;4.80;93.20;;;;;;5124578;28;20116;-58
2022/12/18 11:16:59;;;;;;;133.80;34.95;;;4.80;93.50;;;;;;5124337;28;20053;-58
2022/12/18 11:19:39;;;;;;;126.60;32.72;;;4.80;93.10;;;;;;5124366;28;20020;-58
2022/12/18 11:22:27;;;;;;;114.55;33.05;;;4.80;93.20;;;;;;5124176;28;20198;-58
2022/12/18 11:25:11;;;;;;;161.80;36.85;;;4.80;93.20;;;;;;5094128;28;20477;-58
2022/12/18 11:27:38;;;;;;;151.30;33.60;;;4.80;93.40;;;;;;5124330;28;20036;-57
2022/12/18 11:30:31;;;;;;;174.80;36.97;;;4.80;93.40;;;;;;5106757;28;20029;-58
2022/12/18 11:32:58;;;;;;;171.73;38.53;;;4.90;93.50;;;;;;5117442;28;20050;-58
2022/12/18 11:35:37;;;;;;;226.77;39.10;;;4.90;93.50;;;;;;5107086;28;20020;-58
2022/12/18 11:38:27;;;;;;;153.55;35.70;;;4.90;93.40;;;;;;5123619;28;20032;-59
2022/12/18 11:41:18;;;;;;;139.35;36.40;;;4.90;93.50;;;;;;5116158;28;20110;-58
2022/12/18 11:43:55;;;;;;;105.95;31.23;;;4.90;93.40;;;;;;5120695;28;20036;-58
2022/12/18 11:46:34;;;;;;;133.93;33.22;;;4.90;93.30;;;;;;5124167;28;20103;-58
2022/12/18 11:49:12;;;;;;;157.13;36.10;;;4.90;93.30;;;;;;5124227;28;20036;-58
2022/12/18 11:51:42;;;;;;;141.07;34.38;;;4.90;93.30;;;;;;5123383;28;20047;-58
2022/12/18 11:54:14;;;;;;;107.75;31.92;;;4.90;93.60;;;;;;5123717;28;20037;-58
2022/12/18 11:56:48;;;;;;;147.52;34.90;;;4.90;93.30;;;;;;5106687;28;20087;-58
2022/12/18 11:59:41;;;;;;;122.82;32.92;;;4.90;93.30;;;;;;5123715;28;20034;-58
2022/12/18 12:02:31;;;;;;;126.90;32.50;;;4.90;93.30;;;;;;5123467;28;20538;-59
2022/12/18 12:05:30;;;;;;;112.32;32.70;;;4.90;93.40;;;;;;5123843;28;20050;-58
2022/12/18 12:08:05;;;;;;;130.55;30.08;;;5.00;93.40;;;;;;5087124;28;20068;-58
2022/12/18 12:10:41;;;;;;;111.50;30.73;;;5.00;93.40;;;;;;5123596;28;20048;-58
2022/12/18 12:13:19;;;;;;;94.30;30.58;;;5.00;93.30;;;;;;5123652;28;20375;-58
2022/12/18 12:15:52;;;;;;;96.32;29.63;;;5.00;93.30;;;;;;5123582;28;20028;-58
2022/12/18 12:19:00;;;;;;;107.72;30.83;;;5.00;93.20;;;;;;5124199;28;20028;-58
2022/12/18 12:21:40;;;;;;;149.43;36.10;;;5.00;93.20;;;;;;5119126;28;20032;-59
2022/12/18 12:24:09;;;;;;;116.85;30.75;;;5.00;93.20;;;;;;5123614;28;20028;-58
2022/12/18 12:27:28;;;;;;;133.27;32.13;;;5.00;93.10;;;;;;5125011;28;20038;-59
2022/12/18 12:30:17;;;;;;;111.30;31.15;;;5.00;93.00;;;;;;5123667;28;20311;-58
2022/12/18 12:32:49;;;;;;;85.88;29.27;;;5.00;93.00;;;;;;5123415;28;20036;-59
2022/12/18 12:35:30;;;;;;;99.18;29.65;;;5.00;93.00;;;;;;5124793;28;20039;-58
2022/12/18 12:38:07;;;;;;;108.13;29.10;;;5.00;93.00;;;;;;5124993;28;20016;-58
2022/12/18 12:40:39;;;;;;;101.82;30.50;;;5.00;93.00;;;;;;5123985;28;20173;-58
2022/12/18 12:43:35;;;;;;;117.57;29.38;;;5.00;93.00;;;;;;5127883;28;20427;-58
2022/12/18 12:46:04;;;;;;;100.10;30.35;;;5.10;93.00;;;;;;5127500;28;20043;-58
2022/12/18 12:49:02;;;;;;;118.03;31.48;;;5.10;92.90;;;;;;5127677;28;20189;-58
2022/12/18 12:51:28;;;;;;;94.93;28.48;;;5.10;92.80;;;;;;5126458;28;20143;-58
2022/12/18 12:53:55;;;;;;;117.07;30.58;;;5.10;92.90;;;;;;5127470;28;20049;-58
2022/12/18 12:56:21;;;;;;;83.43;29.55;;;5.10;92.90;;;;;;5127804;28;20099;-59